Time;durP1;ratioP1;P1;durP2;ratioP2;P2;SDS_P1;SDS_P2;PMS_P1;PMS_P2;Temp;Humidity;BMP_temperature;BMP_pressure;BME280_temperature;BME280_humidity;BME280_pressure;Samples;Min_cycle;Max_cycle;Signal;HPM_P1;HPM_P2
2022/01/05 00:01:58;;;;;;;4.55;2.35;;;;;;;3.85;100.00;93951.75;5091517;27;20051;-78
2022/01/05 00:04:23;;;;;;;4.60;2.67;;;;;;;3.72;100.00;93958.31;5111218;27;20133;-77
2022/01/05 00:06:49;;;;;;;4.30;2.20;;;;;;;3.68;100.00;93962.47;5111402;27;20039;-78
2022/01/05 00:09:15;;;;;;;3.95;2.10;;;;;;;3.72;100.00;93979.13;5102799;27;20073;-78
2022/01/05 00:11:41;;;;;;;3.95;2.47;;;;;;;3.55;100.00;93976.78;5097880;28;20091;-77
2022/01/05 00:14:07;;;;;;;3.78;2.13;;;;;;;3.62;100.00;93985.91;5109410;28;20044;-77
2022/01/05 00:16:32;;;;;;;5.03;2.75;;;;;;;3.51;100.00;93994.75;5094893;28;20044;-78
2022/01/05 00:18:58;;;;;;;4.20;2.50;;;;;;;3.50;100.00;93995.03;5106292;27;20453;-77
2022/01/05 00:21:24;;;;;;;4.93;2.80;;;;;;;3.59;100.00;93994.25;5112922;27;20421;-77
2022/01/05 00:23:49;;;;;;;5.32;2.72;;;;;;;3.48;100.00;93995.28;5102236;28;20051;-77
2022/01/05 00:26:15;;;;;;;4.68;2.88;;;;;;;3.51;100.00;93994.75;5100971;27;20552;-77
2022/01/05 00:28:40;;;;;;;4.68;2.65;;;;;;;3.56;100.00;93997.38;5107195;27;20814;-77
2022/01/05 00:31:06;;;;;;;4.20;2.15;;;;;;;3.47;100.00;94004.91;5102256;28;20055;-77
2022/01/05 00:33:31;;;;;;;4.20;2.35;;;;;;;3.27;100.00;94010.09;5090031;28;20044;-77
2022/01/05 00:35:57;;;;;;;6.05;2.60;;;;;;;3.16;100.00;94009.34;5100851;28;20453;-77
2022/01/05 00:38:23;;;;;;;2.63;1.73;;;;;;;3.11;100.00;94017.88;5092742;28;20043;-77
2022/01/05 00:40:48;;;;;;;3.22;1.85;;;;;;;3.10;100.00;94020.75;5102347;27;20032;-78
2022/01/05 00:43:14;;;;;;;3.15;1.90;;;;;;;3.07;100.00;94032.44;5098318;28;20097;-77
2022/01/05 00:45:39;;;;;;;3.83;2.03;;;;;;;3.01;100.00;94033.47;5112165;27;20040;-77
2022/01/05 00:48:05;;;;;;;4.28;1.98;;;;;;;3.18;100.00;94043.63;5101256;27;20040;-77
2022/01/05 00:50:30;;;;;;;2.88;1.75;;;;;;;3.01;100.00;94049.06;5091684;28;20050;-77
2022/01/05 00:53:00;;;;;;;2.78;1.80;;;;;;;2.97;100.00;94052.44;5103955;27;20036;-77
2022/01/05 00:55:27;;;;;;;2.90;1.67;;;;;;;2.76;100.00;94055.78;5093264;27;20475;-77
2022/01/05 00:57:53;;;;;;;2.83;1.45;;;;;;;2.59;100.00;94063.75;5084255;27;20039;-77
2022/01/05 01:00:19;;;;;;;2.33;1.35;;;;;;;2.51;100.00;94061.66;5106056;27;20397;-77
2022/01/05 01:02:44;;;;;;;1.75;1.10;;;;;;;2.49;100.00;94058.53;5097744;28;20043;-77
2022/01/05 01:05:11;;;;;;;1.10;0.90;;;;;;;2.34;100.00;94056.66;5108457;28;20094;-77
2022/01/05 01:07:36;;;;;;;1.70;0.98;;;;;;;2.25;100.00;94069.31;5100197;28;20089;-77
2022/01/05 01:10:02;;;;;;;1.05;0.63;;;;;;;2.23;100.00;94066.22;5098429;28;20047;-77
2022/01/05 01:12:28;;;;;;;0.98;0.77;;;;;;;2.14;100.00;94070.31;5104354;27;20088;-78
2022/01/05 01:14:53;;;;;;;0.63;0.57;;;;;;;2.31;100.00;94071.94;5106080;27;20684;-76
2022/01/05 01:17:19;;;;;;;1.48;0.80;;;;;;;2.24;100.00;94075.56;5099444;27;20052;-77
2022/01/05 01:19:45;;;;;;;1.17;0.70;;;;;;;2.35;100.00;94078.22;5098562;28;20044;-77
2022/01/05 01:22:10;;;;;;;0.70;0.70;;;;;;;2.21;100.00;94088.25;5095498;28;20409;-76
2022/01/05 01:24:36;;;;;;;1.05;0.90;;;;;;;2.15;100.00;94084.84;5095232;27;20645;-77
2022/01/05 01:27:02;;;;;;;0.32;0.32;;;;;;;2.30;100.00;94091.94;5102251;27;20500;-77
2022/01/05 01:29:27;;;;;;;1.23;0.55;;;;;;;2.21;100.00;94094.25;5110675;27;20050;-77
2022/01/05 01:31:53;;;;;;;0.65;0.45;;;;;;;2.21;100.00;94094.25;5124698;27;20047;-77
2022/01/05 01:34:18;;;;;;;0.60;0.55;;;;;;;2.24;100.00;94088.53;5096192;27;20609;-77
2022/01/05 01:36:44;;;;;;;0.75;0.52;;;;;;;2.26;100.00;94093.47;5105745;28;20097;-77
2022/01/05 01:39:09;;;;;;;0.82;0.60;;;;;;;2.20;100.00;94097.88;5103096;28;20504;-76
2022/01/05 01:41:35;;;;;;;0.65;0.50;;;;;;;2.09;100.00;94106.63;5103314;27;20054;-76
2022/01/05 01:44:00;;;;;;;0.60;0.57;;;;;;;2.01;100.00;94104.47;5112156;27;20043;-77
2022/01/05 01:46:26;;;;;;;0.65;0.60;;;;;;;1.86;100.00;94108.53;5100199;28;20043;-77
2022/01/05 01:48:52;;;;;;;0.25;0.25;;;;;;;1.81;100.00;94111.09;5098110;28;20621;-78
2022/01/05 01:51:18;;;;;;;0.82;0.63;;;;;;;1.93;100.00;94108.34;5104564;27;20044;-77
2022/01/05 01:53:44;;;;;;;1.70;0.77;;;;;;;1.87;100.00;94110.09;5099144;28;20545;-77
2022/01/05 01:56:11;;;;;;;0.95;0.85;;;;;;;1.84;100.00;94100.22;5101322;28;20047;-77
2022/01/05 01:58:37;;;;;;;0.80;0.77;;;;;;;1.81;100.00;94100.72;5087830;28;20043;-77
2022/01/05 02:01:03;;;;;;;0.82;0.73;;;;;;;1.77;100.00;94099.66;5099992;28;20044;-78
2022/01/05 02:03:29;;;;;;;1.60;0.90;;;;;;;1.69;100.00;94100.09;5087014;28;20040;-77
2022/01/05 02:05:55;;;;;;;2.88;1.20;;;;;;;1.69;100.00;94093.09;5099842;28;20054;-77
2022/01/05 02:08:20;;;;;;;3.50;1.30;;;;;;;1.75;100.00;94096.50;5100583;28;20040;-77
2022/01/05 02:10:49;;;;;;;1.65;0.90;;;;;;;1.76;100.00;94105.88;5097512;27;20043;-77
2022/01/05 02:13:14;;;;;;;2.28;1.13;;;;;;;1.74;100.00;94105.34;5108171;28;20088;-76
2022/01/05 02:15:41;;;;;;;0.88;0.80;;;;;;;1.73;100.00;94103.78;5114096;28;20043;-77
2022/01/05 02:18:21;;;;;;;2.25;0.63;;;;;;;1.70;100.00;94099.09;5103354;28;20072;-77
2022/01/05 02:20:47;;;;;;;0.85;0.55;;;;;;;1.71;100.00;94111.81;5100575;28;20093;-76
2022/01/05 02:23:13;;;;;;;0.43;0.43;;;;;;;1.75;100.00;94112.06;5116512;28;20043;-77
2022/01/05 02:25:38;;;;;;;0.70;0.60;;;;;;;1.66;100.00;94105.78;5111736;28;20047;-77
2022/01/05 02:28:04;;;;;;;0.70;0.70;;;;;;;1.71;100.00;94116.19;5074438;28;20261;-77
2022/01/05 02:30:30;;;;;;;0.75;0.57;;;;;;;1.66;100.00;94108.38;5104194;28;20044;-77
2022/01/05 02:32:56;;;;;;;2.38;0.50;;;;;;;1.59;100.00;94087.06;5102619;28;20035;-77
2022/01/05 02:35:22;;;;;;;0.60;0.60;;;;;;;1.61;100.00;94095.38;5113687;28;20049;-76
2022/01/05 02:37:50;;;;;;;0.80;0.80;;;;;;;1.54;100.00;94098.97;5103202;28;20764;-77
2022/01/05 02:40:17;;;;;;;1.20;0.70;;;;;;;1.62;100.00;94102.13;5103005;28;20111;-77
2022/01/05 02:42:43;;;;;;;0.55;0.55;;;;;;;1.65;100.00;94104.22;5108284;28;20081;-76
2022/01/05 02:45:11;;;;;;;0.80;0.47;;;;;;;1.59;100.00;94107.81;5095578;28;20044;-76
2022/01/05 02:47:37;;;;;;;1.17;0.45;;;;;;;1.51;100.00;94112.41;5109948;28;20032;-77
2022/01/05 02:50:05;;;;;;;0.60;0.38;;;;;;;1.49;100.00;94114.47;5102295;28;20078;-76
2022/01/05 02:52:30;;;;;;;0.32;0.32;;;;;;;1.60;100.00;94104.19;5103910;28;20042;-76
2022/01/05 02:54:56;;;;;;;0.52;0.50;;;;;;;1.62;100.00;94104.72;5103777;28;20421;-76
2022/01/05 02:57:22;;;;;;;0.73;0.50;;;;;;;1.62;100.00;94107.31;5074405;28;20532;-77
2022/01/05 02:59:48;;;;;;;1.17;0.80;;;;;;;1.63;100.00;94101.09;5097792;28;20046;-77
2022/01/05 03:02:14;;;;;;;0.80;0.65;;;;;;;1.62;100.00;94107.31;5107114;28;20052;-77
2022/01/05 03:04:39;;;;;;;0.68;0.60;;;;;;;1.58;100.00;94101.84;5113549;28;20040;-77
2022/01/05 03:07:05;;;;;;;0.55;0.50;;;;;;;1.64;100.00;94105.25;5109024;28;20074;-77
2022/01/05 03:09:30;;;;;;;0.52;0.52;;;;;;;1.72;100.00;94103.00;5095982;28;20069;-77
2022/01/05 03:11:56;;;;;;;0.50;0.50;;;;;;;1.70;100.00;94091.31;5104654;28;20050;-77
2022/01/05 03:14:22;;;;;;;0.60;0.60;;;;;;;1.65;100.00;94109.41;5104852;28;20044;-77
2022/01/05 03:16:48;;;;;;;0.80;0.80;;;;;;;1.68;100.00;94106.31;5108461;28;20043;-77
2022/01/05 03:19:13;;;;;;;0.80;0.80;;;;;;;1.66;100.00;94116.16;5105931;28;20567;-77
2022/01/05 03:21:39;;;;;;;0.70;0.60;;;;;;;1.75;100.00;94122.44;5097952;28;20039;-77
2022/01/05 03:24:05;;;;;;;1.00;0.70;;;;;;;1.72;100.00;94112.56;5089940;28;20048;-77
2022/01/05 03:26:31;;;;;;;0.90;0.70;;;;;;;1.65;100.00;94106.81;5106663;27;20046;-77
2022/01/05 03:28:56;;;;;;;0.77;0.60;;;;;;;1.76;100.00;94116.25;5116834;27;20594;-77
2022/01/05 03:31:22;;;;;;;1.23;0.88;;;;;;;1.71;100.00;94105.81;5107396;28;20458;-77
2022/01/05 03:33:47;;;;;;;1.10;0.98;;;;;;;1.70;100.00;94120.59;5111560;28;20036;-77
2022/01/05 03:36:14;;;;;;;0.60;0.60;;;;;;;1.70;100.00;94120.59;5097283;28;20044;-77
2022/01/05 03:38:40;;;;;;;0.88;0.80;;;;;;;1.75;100.00;94119.09;5091238;28;20044;-77
2022/01/05 03:41:05;;;;;;;1.25;1.02;;;;;;;1.79;100.00;94120.94;5104050;28;20109;-77
2022/01/05 03:43:31;;;;;;;1.75;0.88;;;;;;;1.80;100.00;94119.91;5103132;28;20100;-77
2022/01/05 03:45:56;;;;;;;1.58;0.95;;;;;;;1.84;100.00;94125.38;5100314;27;20051;-77
2022/01/05 03:48:24;;;;;;;0.55;0.55;;;;;;;1.78;100.00;94114.19;5099312;28;20055;-77
2022/01/05 03:50:50;;;;;;;0.60;0.60;;;;;;;1.81;100.00;94105.91;5105743;28;20093;-77
2022/01/05 03:53:15;;;;;;;2.28;1.17;;;;;;;1.80;100.00;94119.91;5084220;28;20059;-77
2022/01/05 03:55:45;;;;;;;0.80;0.77;;;;;;;1.89;100.00;94118.41;5103119;28;20126;-77
2022/01/05 03:58:11;;;;;;;0.88;0.63;;;;;;;1.83;100.00;94119.41;5115677;27;20431;-77
2022/01/05 04:00:43;;;;;;;0.65;0.65;;;;;;;1.83;100.00;94124.59;5108817;27;20048;-77
2022/01/05 04:03:09;;;;;;;1.10;0.80;;;;;;;1.76;100.00;94129.22;5075024;28;20685;-77
2022/01/05 04:05:35;;;;;;;1.10;0.80;;;;;;;1.80;100.00;94130.28;5087506;27;20059;-77
2022/01/05 04:08:01;;;;;;;0.80;0.70;;;;;;;1.83;100.00;94129.78;5106743;27;20961;-77
2022/01/05 04:10:26;;;;;;;1.35;0.70;;;;;;;1.82;100.00;94123.03;5096861;27;20047;-77
2022/01/05 04:12:52;;;;;;;1.35;0.77;;;;;;;1.73;100.00;94124.53;5106707;27;20705;-77
2022/01/05 04:15:18;;;;;;;1.70;0.70;;;;;;;1.73;100.00;94130.47;5095152;28;20562;-77
2022/01/05 04:17:45;;;;;;;1.40;0.82;;;;;;;1.74;100.00;94136.47;5094607;27;20077;-77
2022/01/05 04:20:12;;;;;;;1.73;0.93;;;;;;;1.77;100.00;94125.59;5118762;27;20044;-77
2022/01/05 04:22:38;;;;;;;3.30;0.65;;;;;;;1.77;100.00;94130.78;5105404;27;20053;-77
2022/01/05 04:25:05;;;;;;;2.15;1.00;;;;;;;1.76;100.00;94129.22;5092649;28;20527;-77
2022/01/05 04:27:30;;;;;;;0.50;0.50;;;;;;;1.66;100.00;94134.31;5093721;28;20040;-76
2022/01/05 04:29:56;;;;;;;0.68;0.40;;;;;;;1.68;100.00;94132.25;5109479;28;20039;-77
2022/01/05 04:32:21;;;;;;;0.73;0.60;;;;;;;1.63;100.00;94124.44;5115208;27;20051;-76
2022/01/05 04:34:47;;;;;;;1.15;0.60;;;;;;;1.54;100.00;94127.47;5105787;27;20035;-77
2022/01/05 04:37:12;;;;;;;1.50;0.70;;;;;;;1.47;100.00;94137.28;5098652;28;20054;-77
2022/01/05 04:39:38;;;;;;;0.40;0.40;;;;;;;1.46;100.00;94135.69;5106220;27;20044;-76
2022/01/05 04:42:04;;;;;;;1.20;0.55;;;;;;;1.47;100.00;94137.28;5090260;28;20086;-75
2022/01/05 04:44:30;;;;;;;0.77;0.60;;;;;;;1.48;100.00;94136.25;5109725;28;20491;-77
2022/01/05 04:46:55;;;;;;;1.60;0.85;;;;;;;1.37;100.00;94129.41;5101558;27;20044;-76
2022/01/05 04:49:21;;;;;;;2.88;0.95;;;;;;;1.44;100.00;94122.22;5107280;27;20063;-77
2022/01/05 04:51:47;;;;;;;0.90;0.75;;;;;;;1.43;100.00;94125.81;5106259;27;20044;-78
2022/01/05 04:54:12;;;;;;;1.20;0.57;;;;;;;1.41;100.00;94114.13;5105707;27;20138;-77
2022/01/05 04:56:38;;;;;;;1.42;0.68;;;;;;;1.37;100.00;94111.25;5104742;28;20071;-76
2022/01/05 04:59:04;;;;;;;1.20;0.50;;;;;;;1.33;100.00;94115.38;5089900;28;20567;-76
2022/01/05 05:01:29;;;;;;;0.60;0.50;;;;;;;1.32;100.00;94108.59;5104349;28;20110;-76
2022/01/05 05:03:55;;;;;;;0.52;0.40;;;;;;;1.32;100.00;94111.19;5091055;28;20094;-76
2022/01/05 05:06:22;;;;;;;0.77;0.60;;;;;;;1.31;100.00;94117.44;5108301;27;20032;-77
2022/01/05 05:08:48;;;;;;;0.60;0.60;;;;;;;1.26;100.00;94119.97;5090088;28;20043;-77
2022/01/05 05:11:14;;;;;;;0.95;0.70;;;;;;;1.29;100.00;94124.66;5114611;27;20050;-77
2022/01/05 05:13:39;;;;;;;0.55;0.55;;;;;;;1.35;100.00;94121.06;5101712;27;20040;-76
2022/01/05 05:16:05;;;;;;;1.10;0.57;;;;;;;1.35;100.00;94108.13;5104516;27;20063;-77
2022/01/05 05:18:31;;;;;;;0.43;0.43;;;;;;;1.34;100.00;94122.91;5107558;27;20484;-77
2022/01/05 05:20:56;;;;;;;0.75;0.65;;;;;;;1.39;100.00;94124.75;5108879;28;20039;-77
2022/01/05 05:23:21;;;;;;;0.65;0.43;;;;;;;1.45;100.00;94126.38;5101911;28;20066;-77
2022/01/05 05:25:47;;;;;;;0.28;0.28;;;;;;;1.40;100.00;94126.31;5088979;28;20040;-77
2022/01/05 05:28:13;;;;;;;0.47;0.47;;;;;;;1.47;100.00;94134.69;5099073;28;20035;-77
2022/01/05 05:30:38;;;;;;;0.32;0.32;;;;;;;1.48;100.00;94128.47;5102954;28;20040;-76
2022/01/05 05:33:04;;;;;;;0.30;0.30;;;;;;;1.50;100.00;94126.41;5109634;28;20461;-77
2022/01/05 05:35:30;;;;;;;1.13;0.50;;;;;;;1.48;100.00;94128.47;5103016;28;21111;-75
2022/01/05 05:37:56;;;;;;;1.55;0.50;;;;;;;1.52;100.00;94119.19;5106176;28;20055;-75
2022/01/05 05:40:22;;;;;;;0.47;0.40;;;;;;;1.54;100.00;94135.25;5083781;28;20063;-75
2022/01/05 05:42:48;;;;;;;0.32;0.20;;;;;;;1.53;100.00;94131.09;5089036;28;20048;-75
2022/01/05 05:45:14;;;;;;;0.22;0.22;;;;;;;1.54;100.00;94127.47;5097802;28;20040;-76
2022/01/05 05:47:40;;;;;;;0.50;0.28;;;;;;;1.60;100.00;94132.72;5095022;28;20051;-76
2022/01/05 05:50:05;;;;;;;0.32;0.30;;;;;;;1.60;100.00;94143.09;5095193;28;20035;-75
2022/01/05 05:52:31;;;;;;;0.45;0.45;;;;;;;1.54;100.00;94132.66;5099402;28;20032;-76
2022/01/05 05:54:57;;;;;;;2.75;0.50;;;;;;;1.59;100.00;94128.56;5105642;28;20039;-76
2022/01/05 05:57:22;;;;;;;0.80;0.50;;;;;;;1.49;100.00;94135.19;5093934;28;20054;-76
2022/01/05 05:59:47;;;;;;;0.30;0.20;;;;;;;1.63;100.00;94140.00;5075555;28;20061;-76
2022/01/05 06:02:13;;;;;;;0.20;0.20;;;;;;;1.61;100.00;94147.22;5106577;28;20094;-77
2022/01/05 06:04:39;;;;;;;0.20;0.20;;;;;;;1.63;100.00;94145.19;5103146;28;20036;-75
2022/01/05 06:07:04;;;;;;;0.65;0.38;;;;;;;1.66;100.00;94144.69;5098350;28;20051;-76
2022/01/05 06:09:30;;;;;;;0.45;0.32;;;;;;;1.66;100.00;94139.50;5090268;28;20513;-76
2022/01/05 06:11:55;;;;;;;0.65;0.20;;;;;;;1.68;100.00;94140.03;5108204;28;20051;-76
2022/01/05 06:14:21;;;;;;;0.85;0.40;;;;;;;1.66;100.00;94144.69;5082682;28;20472;-76
2022/01/05 06:16:47;;;;;;;0.40;0.22;;;;;;;1.66;100.00;94134.31;5100119;28;20048;-76
2022/01/05 06:19:12;;;;;;;0.20;0.20;;;;;;;1.69;100.00;94144.19;5107149;28;20046;-76
2022/01/05 06:21:38;;;;;;;0.20;0.20;;;;;;;1.68;100.00;94132.25;5104226;28;20040;-76
2022/01/05 06:24:04;;;;;;;1.40;0.57;;;;;;;1.69;100.00;94154.56;5088504;28;20040;-76
2022/01/05 06:26:29;;;;;;;0.40;0.28;;;;;;;1.74;100.00;94152.03;5101397;28;20048;-75
2022/01/05 06:28:54;;;;;;;0.13;0.10;;;;;;;1.76;100.00;94155.16;5103038;28;20096;-76
2022/01/05 06:31:20;;;;;;;0.10;0.10;;;;;;;1.72;100.00;94154.06;5106254;28;20040;-75
2022/01/05 06:33:46;;;;;;;0.20;0.10;;;;;;;1.79;100.00;94144.28;5105926;28;20047;-76
2022/01/05 06:36:11;;;;;;;0.68;0.20;;;;;;;1.76;100.00;94138.81;5107031;28;20065;-76
2022/01/05 06:38:37;;;;;;;0.55;0.40;;;;;;;1.81;100.00;94133.66;5090880;28;20051;-75
2022/01/05 06:41:03;;;;;;;0.20;0.20;;;;;;;1.84;100.00;94139.13;5078495;28;20101;-74
2022/01/05 06:43:30;;;;;;;0.50;0.30;;;;;;;1.82;100.00;94138.59;5099451;28;20118;-75
2022/01/05 06:45:56;;;;;;;1.48;0.60;;;;;;;1.84;100.00;94146.91;5108687;28;20048;-75
2022/01/05 06:48:22;;;;;;;0.35;0.35;;;;;;;1.86;100.00;94150.03;5082776;28;20051;-75
2022/01/05 06:50:47;;;;;;;0.98;0.47;;;;;;;1.88;100.00;94153.19;5092752;28;20493;-76
2022/01/05 06:53:14;;;;;;;0.30;0.20;;;;;;;1.94;100.00;94155.81;5096725;28;20111;-76
2022/01/05 06:55:39;;;;;;;1.98;0.30;;;;;;;1.92;100.00;94165.66;5104666;28;20047;-76
2022/01/05 06:58:05;;;;;;;0.40;0.30;;;;;;;1.97;100.00;94157.91;5102722;28;20501;-75
2022/01/05 07:00:31;;;;;;;0.20;0.20;;;;;;;2.02;100.00;94160.53;5084999;28;20059;-75
2022/01/05 07:02:57;;;;;;;0.45;0.45;;;;;;;2.05;100.00;94173.00;5094237;28;20043;-76
2022/01/05 07:05:23;;;;;;;0.73;0.50;;;;;;;1.94;100.00;94166.97;5102320;28;20044;-76
2022/01/05 07:07:49;;;;;;;1.35;0.65;;;;;;;2.07;100.00;94165.78;5107057;28;20050;-76
2022/01/05 07:10:15;;;;;;;3.30;0.68;;;;;;;1.97;100.00;94166.47;5101239;28;20055;-76
2022/01/05 07:12:41;;;;;;;0.68;0.43;;;;;;;2.09;100.00;94174.09;5091543;27;20110;-76
2022/01/05 07:15:07;;;;;;;1.20;0.40;;;;;;;2.08;100.00;94165.53;5109777;27;20089;-77
2022/01/05 07:17:33;;;;;;;0.40;0.40;;;;;;;2.16;100.00;94179.06;5082610;28;20052;-76
2022/01/05 07:19:59;;;;;;;0.40;0.40;;;;;;;2.17;100.00;94181.41;5096975;28;20050;-76
2022/01/05 07:22:25;;;;;;;0.17;0.17;;;;;;;2.23;100.00;94179.66;5107162;28;20043;-76
2022/01/05 07:24:50;;;;;;;0.28;0.28;;;;;;;2.23;100.00;94188.22;5106514;28;20066;-77
2022/01/05 07:27:16;;;;;;;0.20;0.20;;;;;;;2.19;100.00;94189.72;5119490;27;20082;-77
2022/01/05 07:29:42;;;;;;;0.17;0.15;;;;;;;2.24;100.00;94176.81;5109026;28;20044;-76
2022/01/05 07:32:08;;;;;;;0.40;0.40;;;;;;;2.24;100.00;94191.56;5095036;28;20067;-76
2022/01/05 07:34:33;;;;;;;0.20;0.20;;;;;;;2.23;100.00;94180.41;5113329;27;20731;-76
2022/01/05 07:36:59;;;;;;;0.75;0.35;;;;;;;2.21;100.00;94181.69;5098984;28;20354;-76
2022/01/05 07:39:25;;;;;;;2.55;0.40;;;;;;;2.25;100.00;94193.16;5092316;28;20573;-76
2022/01/05 07:41:50;;;;;;;0.82;0.73;;;;;;;2.23;100.00;94196.00;5111141;28;20052;-77
2022/01/05 07:44:16;;;;;;;1.17;0.80;;;;;;;2.29;100.00;94204.59;5110216;28;20043;-75
2022/01/05 07:46:41;;;;;;;0.93;0.43;;;;;;;2.25;100.00;94204.31;5110406;27;20039;-76
2022/01/05 07:49:07;;;;;;;1.50;0.52;;;;;;;2.27;100.00;94200.69;5114264;27;20418;-76
2022/01/05 07:51:33;;;;;;;1.45;0.30;;;;;;;2.31;100.00;94199.16;5109691;27;20054;-77
2022/01/05 07:53:59;;;;;;;0.60;0.60;;;;;;;2.22;100.00;94204.81;5117040;27;20488;-76
2022/01/05 07:56:25;;;;;;;1.23;0.80;;;;;;;2.36;100.00;94207.00;5099737;27;20058;-76
2022/01/05 07:58:50;;;;;;;1.45;0.40;;;;;;;2.34;100.00;94212.44;5093071;28;20050;-76
2022/01/05 08:01:18;;;;;;;0.80;0.60;;;;;;;2.32;100.00;94221.50;5100053;28;20554;-76
2022/01/05 08:03:45;;;;;;;0.82;0.60;;;;;;;2.27;100.00;94231.84;5106456;28;20066;-77
2022/01/05 08:06:11;;;;;;;0.50;0.50;;;;;;;2.17;100.00;94233.34;5109974;27;20046;-75
2022/01/05 08:08:36;;;;;;;1.40;0.65;;;;;;;2.30;100.00;94249.50;5101572;27;20036;-76
2022/01/05 08:11:02;;;;;;;0.80;0.63;;;;;;;2.30;100.00;94246.91;5095579;28;20488;-76
2022/01/05 08:13:27;;;;;;;2.47;0.93;;;;;;;2.23;100.00;94244.53;5080129;27;20033;-76
2022/01/05 08:15:54;;;;;;;1.08;0.52;;;;;;;2.34;100.00;94247.97;5124882;27;20042;-76
2022/01/05 08:18:20;;;;;;;0.50;0.47;;;;;;;2.30;100.00;94267.69;5107055;28;20039;-76
2022/01/05 08:20:46;;;;;;;0.85;0.70;;;;;;;2.21;100.00;94265.56;5111106;28;20044;-76
2022/01/05 08:23:21;;;;;;;0.75;0.57;;;;;;;2.17;100.00;94259.28;5078866;28;20051;-76
2022/01/05 08:25:47;;;;;;;;;;;;;;;2.23;100.00;94273.88;5089183;28;20043;-76
2022/01/05 08:28:14;;;;;;;0.98;0.60;;;;;;;2.23;100.00;94284.25;5110571;27;19942;-76
2022/01/05 08:30:39;;;;;;;0.47;0.47;;;;;;;2.29;100.00;94299.88;5119270;27;20066;-77
2022/01/05 08:33:07;;;;;;;0.60;0.57;;;;;;;2.18;100.00;94307.56;5113892;27;20042;-76
2022/01/05 08:35:33;;;;;;;1.42;0.60;;;;;;;2.12;100.00;94313.75;5107740;27;20039;-77
2022/01/05 08:37:59;;;;;;;0.40;0.40;;;;;;;2.28;100.00;94317.25;5099859;28;20048;-76
2022/01/05 08:40:26;;;;;;;0.65;0.63;;;;;;;2.15;100.00;94323.63;5084984;28;20046;-76
2022/01/05 08:42:53;;;;;;;1.45;0.80;;;;;;;2.21;100.00;94322.66;5092181;28;20060;-76
2022/01/05 08:45:19;;;;;;;2.35;1.10;;;;;;;2.15;100.00;94317.66;5104664;28;20044;-76
2022/01/05 08:47:50;;;;;;;2.63;0.80;;;;;;;2.25;100.00;94321.13;5092988;28;20047;-76
2022/01/05 08:50:17;;;;;;;0.47;0.47;;;;;;;2.27;100.00;94320.09;5114767;27;20051;-76
2022/01/05 08:52:43;;;;;;;1.33;0.80;;;;;;;2.27;100.00;94325.28;5110907;27;20039;-77
2022/01/05 08:55:10;;;;;;;0.73;0.73;;;;;;;2.23;100.00;94320.59;5107464;27;20046;-76
2022/01/05 08:57:35;;;;;;;0.68;0.60;;;;;;;2.23;100.00;94320.59;5105435;28;20040;-77
2022/01/05 09:00:01;;;;;;;0.90;0.60;;;;;;;2.25;100.00;94326.31;5096522;28;20048;-77
2022/01/05 09:02:28;;;;;;;2.20;0.90;;;;;;;2.21;100.00;94338.25;5115431;27;20047;-77
2022/01/05 09:04:53;;;;;;;1.33;0.57;;;;;;;2.32;100.00;94348.72;5092631;28;20043;-77
2022/01/05 09:07:19;;;;;;;0.82;0.70;;;;;;;2.25;100.00;94344.47;5109157;28;20042;-77
2022/01/05 09:09:45;;;;;;;1.85;0.95;;;;;;;2.25;100.00;94352.28;5095316;28;20118;-75
2022/01/05 09:12:11;;;;;;;1.83;1.00;;;;;;;2.19;100.00;94371.44;5109670;28;20044;-77
2022/01/05 09:14:37;;;;;;;0.70;0.68;;;;;;;2.31;100.00;94378.28;5094325;27;20047;-77
2022/01/05 09:17:04;;;;;;;0.82;0.75;;;;;;;2.35;100.00;94369.00;5095425;28;20036;-77
2022/01/05 09:19:29;;;;;;;1.17;0.63;;;;;;;2.27;100.00;94382.41;5095082;27;20062;-77
2022/01/05 09:21:55;;;;;;;1.08;0.70;;;;;;;2.17;100.00;94394.25;5118426;27;20044;-77
2022/01/05 09:24:21;;;;;;;1.50;0.88;;;;;;;2.19;100.00;94407.78;5096955;28;20043;-77
2022/01/05 09:26:46;;;;;;;1.77;0.70;;;;;;;2.12;100.00;94412.34;5081977;28;20032;-77
2022/01/05 09:29:12;;;;;;;1.13;0.75;;;;;;;1.94;100.00;94395.31;5095758;28;20071;-75
2022/01/05 09:31:38;;;;;;;1.77;1.13;;;;;;;1.86;100.00;94419.84;5104526;28;20114;-76
2022/01/05 09:34:04;;;;;;;1.38;1.08;;;;;;;1.83;100.00;94409.94;5105849;27;20482;-76
2022/01/05 09:36:42;;;;;;;1.67;1.30;;;;;;;1.82;100.00;94418.75;5107972;27;20101;-77
2022/01/05 09:41:56;;;;;;;2.88;1.40;;;;;;;1.73;100.00;94440.97;5106721;27;20035;-76
2022/01/05 09:44:26;;;;;;;4.63;1.70;;;;;;;1.69;100.00;94442.47;5089269;28;20047;-77
2022/01/05 09:47:10;;;;;;;3.47;1.95;;;;;;;1.69;100.00;94460.63;5105096;28;20036;-76
2022/01/05 09:49:38;;;;;;;3.78;2.20;;;;;;;1.66;100.00;94466.28;5092957;28;20047;-77
2022/01/05 09:52:07;;;;;;;3.45;2.08;;;;;;;1.62;100.00;94463.38;5079053;28;20119;-76
2022/01/05 09:54:34;;;;;;;4.22;2.47;;;;;;;1.47;100.00;94463.94;5120891;27;20047;-77
2022/01/05 09:57:01;;;;;;;4.88;2.80;;;;;;;1.43;100.00;94470.63;5105615;28;20056;-76
2022/01/05 09:59:29;;;;;;;4.60;2.90;;;;;;;1.53;100.00;94478.53;5105209;27;20088;-77
2022/01/05 10:01:54;;;;;;;4.30;2.70;;;;;;;1.46;100.00;94477.94;5114641;27;20043;-77
2022/01/05 10:04:20;;;;;;;5.43;3.22;;;;;;;1.23;100.00;94483.28;5101929;27;20135;-77
2022/01/05 10:06:47;;;;;;;5.95;3.70;;;;;;;1.30;100.00;94481.31;5095928;28;20036;-77
2022/01/05 10:09:14;;;;;;;6.03;3.65;;;;;;;1.20;100.00;94500.88;5102773;28;20060;-75
2022/01/05 10:11:40;;;;;;;7.53;3.78;;;;;;;1.23;100.00;94498.84;5089613;28;20043;-76
2022/01/05 10:14:06;;;;;;;5.15;3.22;;;;;;;1.23;100.00;94509.19;5116250;27;20048;-76
2022/01/05 10:16:32;;;;;;;5.93;3.90;;;;;;;1.07;100.00;94511.53;5107159;28;20062;-75
2022/01/05 10:18:59;;;;;;;7.60;4.30;;;;;;;1.12;100.00;94503.84;5101376;28;20487;-77
2022/01/05 10:21:33;;;;;;;8.02;4.70;;;;;;;1.25;100.00;94507.16;5105004;28;20035;-77
2022/01/05 10:23:58;;;;;;;12.05;4.38;;;;;;;1.25;100.00;94501.97;5103409;28;20681;-77
2022/01/05 10:26:39;;;;;;;7.25;3.85;;;;;;;1.15;100.00;94511.16;5106681;28;20427;-76
2022/01/05 10:29:07;;;;;;;7.15;3.67;;;;;;;1.15;100.00;94518.94;5103226;28;20051;-77
2022/01/05 10:31:39;;;;;;;5.88;3.45;;;;;;;1.10;100.00;94524.03;5106812;28;20040;-77
2022/01/05 10:34:20;;;;;;;7.60;4.15;;;;;;;1.17;100.00;94522.06;5112239;28;20401;-77
2022/01/05 10:36:51;;;;;;;8.80;3.67;;;;;;;1.12;100.00;94529.78;5088799;28;20044;-75
2022/01/05 10:39:39;;;;;;;7.40;3.90;;;;;;;1.25;100.00;94533.06;5089587;28;20255;-77
2022/01/05 10:42:07;;;;;;;7.70;3.70;;;;;;;1.28;100.00;94532.59;5099444;28;20089;-75
2022/01/05 10:44:33;;;;;;;6.95;3.63;;;;;;;1.24;100.00;94545.25;5104678;28;20413;-76
2022/01/05 10:47:00;;;;;;;5.63;3.38;;;;;;;1.21;100.00;94543.13;5105410;28;20036;-77
2022/01/05 10:49:32;;;;;;;8.38;3.85;;;;;;;1.25;99.94;94538.25;5109364;28;20040;-77
2022/01/05 10:52:19;;;;;;;6.25;3.30;;;;;;;1.25;98.70;94543.44;5105885;28;20125;-77
2022/01/05 10:54:45;;;;;;;5.00;2.63;;;;;;;1.06;96.12;94535.88;5106187;28;20036;-78
2022/01/05 10:57:13;;;;;;;6.35;3.17;;;;;;;1.01;99.15;94546.94;5097123;28;20109;-77
2022/01/05 10:59:44;;;;;;;5.70;2.88;;;;;;;1.20;98.45;94557.09;5109845;28;20040;-77
2022/01/05 11:02:24;;;;;;;6.07;2.80;;;;;;;1.16;97.71;94545.63;5100341;28;20363;-78
2022/01/05 11:04:51;;;;;;;7.55;3.13;;;;;;;1.26;95.63;94565.75;5112708;28;20055;-78
2022/01/05 11:07:24;;;;;;;4.80;2.20;;;;;;;1.06;96.20;94566.97;5116318;28;20044;-77
2022/01/05 11:10:07;;;;;;;7.32;3.30;;;;;;;1.14;95.02;94571.78;5096384;28;20055;-77
2022/01/05 11:12:38;;;;;;;7.22;2.40;;;;;;;1.14;94.04;94563.22;5098701;28;20409;-76
2022/01/05 11:15:27;;;;;;;5.50;2.72;;;;;;;1.02;97.22;94577.03;5105760;28;20036;-78
2022/01/05 11:18:05;;;;;;;5.63;3.10;;;;;;;1.00;98.55;94583.44;5099507;28;20047;-77
2022/01/05 11:20:30;;;;;;;6.10;2.78;;;;;;;1.05;98.60;94591.31;5106876;28;20039;-76
2022/01/05 11:22:56;;;;;;;5.40;3.15;;;;;;;1.15;99.40;94601.06;5115003;28;20073;-77
2022/01/05 11:25:22;;;;;;;6.45;2.90;;;;;;;0.95;99.04;94596.28;5099266;28;20061;-76
2022/01/05 11:27:48;;;;;;;7.28;2.97;;;;;;;0.97;97.95;94604.63;5107983;28;20036;-77
2022/01/05 11:30:14;;;;;;;6.13;2.80;;;;;;;0.88;98.08;94595.66;5103437;28;20046;-77
2022/01/05 11:32:40;;;;;;;6.80;3.10;;;;;;;0.94;98.89;94616.25;5111081;28;20135;-78
2022/01/05 11:35:07;;;;;;;4.43;2.60;;;;;;;1.00;97.89;94604.16;5110090;28;20040;-79